sensor_id;sensor_type;location;lat;lon;timestamp;temperature;humidity
12907;DHT22;6521;50.498;8.474;2022-09-29T00:00:29;7.65;91.63
12907;DHT22;6521;50.498;8.474;2022-09-29T00:03:00;7.62;91.77
12907;DHT22;6521;50.498;8.474;2022-09-29T00:05:32;7.58;91.60
12907;DHT22;6521;50.498;8.474;2022-09-29T00:08:03;7.58;91.67
12907;DHT22;6521;50.498;8.474;2022-09-29T00:10:33;7.59;91.83
12907;DHT22;6521;50.498;8.474;2022-09-29T00:13:04;7.59;91.98
12907;DHT22;6521;50.498;8.474;2022-09-29T00:15:34;7.55;91.92
12907;DHT22;6521;50.498;8.474;2022-09-29T00:18:05;7.58;92.01
12907;DHT22;6521;50.498;8.474;2022-09-29T00:20:37;7.52;92.11
12907;DHT22;6521;50.498;8.474;2022-09-29T00:23:08;7.50;92.07
12907;DHT22;6521;50.498;8.474;2022-09-29T00:25:39;7.52;91.86
12907;DHT22;6521;50.498;8.474;2022-09-29T00:28:10;7.47;91.77
12907;DHT22;6521;50.498;8.474;2022-09-29T00:30:40;7.41;91.87
12907;DHT22;6521;50.498;8.474;2022-09-29T00:33:11;7.40;92.04
12907;DHT22;6521;50.498;8.474;2022-09-29T00:35:42;7.38;92.09
12907;DHT22;6521;50.498;8.474;2022-09-29T00:38:13;7.41;91.97
12907;DHT22;6521;50.498;8.474;2022-09-29T00:40:43;7.32;91.92
12907;DHT22;6521;50.498;8.474;2022-09-29T00:43:21;7.28;91.85
12907;DHT22;6521;50.498;8.474;2022-09-29T00:45:53;7.24;91.82
12907;DHT22;6521;50.498;8.474;2022-09-29T00:48:30;7.21;91.77
12907;DHT22;6521;50.498;8.474;2022-09-29T00:51:02;7.15;91.85
12907;DHT22;6521;50.498;8.474;2022-09-29T00:53:33;7.10;91.87
12907;DHT22;6521;50.498;8.474;2022-09-29T00:56:07;7.13;91.81
12907;DHT22;6521;50.498;8.474;2022-09-29T00:58:43;7.05;91.81
12907;DHT22;6521;50.498;8.474;2022-09-29T01:01:16;7.00;92.04
12907;DHT22;6521;50.498;8.474;2022-09-29T01:03:48;6.92;92.32
12907;DHT22;6521;50.498;8.474;2022-09-29T01:06:27;6.89;92.33
12907;DHT22;6521;50.498;8.474;2022-09-29T01:09:02;6.93;92.24
12907;DHT22;6521;50.498;8.474;2022-09-29T01:11:36;6.90;91.92
12907;DHT22;6521;50.498;8.474;2022-09-29T01:14:09;6.83;92.28
12907;DHT22;6521;50.498;8.474;2022-09-29T01:16:41;6.83;92.30
12907;DHT22;6521;50.498;8.474;2022-09-29T01:19:16;6.77;92.43
12907;DHT22;6521;50.498;8.474;2022-09-29T01:22:10;6.79;92.39
12907;DHT22;6521;50.498;8.474;2022-09-29T01:36:25;6.63;92.52
12907;DHT22;6521;50.498;8.474;2022-09-29T01:39:25;6.61;92.61
12907;DHT22;6521;50.498;8.474;2022-09-29T01:42:14;6.62;92.47
12907;DHT22;6521;50.498;8.474;2022-09-29T01:45:01;6.59;92.34
12907;DHT22;6521;50.498;8.474;2022-09-29T01:47:42;6.56;92.50
12907;DHT22;6521;50.498;8.474;2022-09-29T01:50:18;6.52;92.34
12907;DHT22;6521;50.498;8.474;2022-09-29T01:52:56;6.46;92.53
12907;DHT22;6521;50.498;8.474;2022-09-29T01:55:32;6.48;92.68
12907;DHT22;6521;50.498;8.474;2022-09-29T01:58:09;6.45;92.57
12907;DHT22;6521;50.498;8.474;2022-09-29T02:00:55;6.41;92.50
12907;DHT22;6521;50.498;8.474;2022-09-29T02:06:12;6.35;92.33
12907;DHT22;6521;50.498;8.474;2022-09-29T02:08:52;6.26;92.48
12907;DHT22;6521;50.498;8.474;2022-09-29T02:11:23;6.22;92.51
12907;DHT22;6521;50.498;8.474;2022-09-29T02:16:53;6.13;92.64
12907;DHT22;6521;50.498;8.474;2022-09-29T02:19:28;6.10;92.68
12907;DHT22;6521;50.498;8.474;2022-09-29T02:22:01;6.07;92.59
12907;DHT22;6521;50.498;8.474;2022-09-29T02:24:31;6.03;92.65
12907;DHT22;6521;50.498;8.474;2022-09-29T02:27:03;5.98;92.76
12907;DHT22;6521;50.498;8.474;2022-09-29T02:29:36;5.98;92.97
12907;DHT22;6521;50.498;8.474;2022-09-29T02:32:08;5.97;92.84
12907;DHT22;6521;50.498;8.474;2022-09-29T02:34:42;5.98;92.75
12907;DHT22;6521;50.498;8.474;2022-09-29T02:45:36;5.86;92.84
12907;DHT22;6521;50.498;8.474;2022-09-29T02:51:10;5.83;92.97
12907;DHT22;6521;50.498;8.474;2022-09-29T02:59:39;5.87;92.56
12907;DHT22;6521;50.498;8.474;2022-09-29T03:02:14;5.83;92.71
12907;DHT22;6521;50.498;8.474;2022-09-29T03:04:46;5.84;93.15
12907;DHT22;6521;50.498;8.474;2022-09-29T03:07:16;5.84;93.27
12907;DHT22;6521;50.498;8.474;2022-09-29T03:09:47;5.87;93.14
12907;DHT22;6521;50.498;8.474;2022-09-29T03:12:18;5.89;93.02
12907;DHT22;6521;50.498;8.474;2022-09-29T03:14:50;5.89;92.86
12907;DHT22;6521;50.498;8.474;2022-09-29T03:17:21;5.83;92.56
12907;DHT22;6521;50.498;8.474;2022-09-29T03:19:52;5.77;92.28
12907;DHT22;6521;50.498;8.474;2022-09-29T03:22:23;5.74;92.80
12907;DHT22;6521;50.498;8.474;2022-09-29T03:24:54;5.69;92.75
12907;DHT22;6521;50.498;8.474;2022-09-29T03:27:25;5.70;92.83
12907;DHT22;6521;50.498;8.474;2022-09-29T03:29:56;5.70;92.85
12907;DHT22;6521;50.498;8.474;2022-09-29T03:32:27;5.69;92.80
12907;DHT22;6521;50.498;8.474;2022-09-29T03:34:58;5.67;92.81
12907;DHT22;6521;50.498;8.474;2022-09-29T03:37:29;5.69;92.56
12907;DHT22;6521;50.498;8.474;2022-09-29T03:40:00;5.67;92.59
12907;DHT22;6521;50.498;8.474;2022-09-29T03:42:31;5.60;92.65
12907;DHT22;6521;50.498;8.474;2022-09-29T03:45:02;5.56;92.89
12907;DHT22;6521;50.498;8.474;2022-09-29T03:47:33;5.52;93.11
12907;DHT22;6521;50.498;8.474;2022-09-29T03:50:04;5.52;93.32
12907;DHT22;6521;50.498;8.474;2022-09-29T03:52:35;5.50;93.14
12907;DHT22;6521;50.498;8.474;2022-09-29T03:55:06;5.50;93.16
12907;DHT22;6521;50.498;8.474;2022-09-29T03:57:37;5.47;92.90
12907;DHT22;6521;50.498;8.474;2022-09-29T04:00:09;5.39;92.72
12907;DHT22;6521;50.498;8.474;2022-09-29T04:02:40;5.35;93.03
12907;DHT22;6521;50.498;8.474;2022-09-29T04:05:11;5.38;93.26
12907;DHT22;6521;50.498;8.474;2022-09-29T04:07:42;5.43;93.48
12907;DHT22;6521;50.498;8.474;2022-09-29T04:10:13;5.46;93.53
12907;DHT22;6521;50.498;8.474;2022-09-29T04:12:43;5.47;93.48
12907;DHT22;6521;50.498;8.474;2022-09-29T04:15:14;5.50;93.46
12907;DHT22;6521;50.498;8.474;2022-09-29T04:17:45;5.50;93.50
12907;DHT22;6521;50.498;8.474;2022-09-29T04:20:16;5.52;93.17
12907;DHT22;6521;50.498;8.474;2022-09-29T04:22:48;5.52;92.97
12907;DHT22;6521;50.498;8.474;2022-09-29T04:25:19;5.42;92.64
12907;DHT22;6521;50.498;8.474;2022-09-29T04:27:50;5.32;92.70
12907;DHT22;6521;50.498;8.474;2022-09-29T04:30:21;5.29;92.81
12907;DHT22;6521;50.498;8.474;2022-09-29T04:32:51;5.25;92.90
12907;DHT22;6521;50.498;8.474;2022-09-29T04:35:22;5.28;92.83
12907;DHT22;6521;50.498;8.474;2022-09-29T04:37:56;5.25;92.86
12907;DHT22;6521;50.498;8.474;2022-09-29T04:40:28;5.22;92.92
12907;DHT22;6521;50.498;8.474;2022-09-29T04:42:59;5.24;92.98
12907;DHT22;6521;50.498;8.474;2022-09-29T04:45:30;5.18;92.83
12907;DHT22;6521;50.498;8.474;2022-09-29T04:48:01;5.18;92.92
12907;DHT22;6521;50.498;8.474;2022-09-29T04:50:32;5.14;93.05
12907;DHT22;6521;50.498;8.474;2022-09-29T04:53:03;5.12;93.24
12907;DHT22;6521;50.498;8.474;2022-09-29T04:55:38;5.16;93.42
12907;DHT22;6521;50.498;8.474;2022-09-29T04:58:09;5.21;93.43
12907;DHT22;6521;50.498;8.474;2022-09-29T05:00:40;5.19;93.31
12907;DHT22;6521;50.498;8.474;2022-09-29T05:03:11;5.22;93.41
12907;DHT22;6521;50.498;8.474;2022-09-29T05:05:42;5.18;93.30
12907;DHT22;6521;50.498;8.474;2022-09-29T05:08:12;5.15;92.77
12907;DHT22;6521;50.498;8.474;2022-09-29T05:10:43;5.11;92.88
12907;DHT22;6521;50.498;8.474;2022-09-29T05:13:17;5.12;93.28
12907;DHT22;6521;50.498;8.474;2022-09-29T05:15:48;5.16;93.35
12907;DHT22;6521;50.498;8.474;2022-09-29T05:18:19;5.19;93.55
12907;DHT22;6521;50.498;8.474;2022-09-29T05:20:50;5.25;93.52
12907;DHT22;6521;50.498;8.474;2022-09-29T05:23:21;5.25;93.26
12907;DHT22;6521;50.498;8.474;2022-09-29T05:25:52;5.26;93.16
12907;DHT22;6521;50.498;8.474;2022-09-29T05:28:22;5.25;93.03
12907;DHT22;6521;50.498;8.474;2022-09-29T05:30:54;5.18;92.89
12907;DHT22;6521;50.498;8.474;2022-09-29T05:33:24;5.18;93.02
12907;DHT22;6521;50.498;8.474;2022-09-29T05:35:55;5.21;93.00
12907;DHT22;6521;50.498;8.474;2022-09-29T05:38:26;5.19;93.15
12907;DHT22;6521;50.498;8.474;2022-09-29T05:40:57;5.21;93.22
12907;DHT22;6521;50.498;8.474;2022-09-29T05:43:28;5.21;93.57
12907;DHT22;6521;50.498;8.474;2022-09-29T05:46:00;5.25;93.61
12907;DHT22;6521;50.498;8.474;2022-09-29T05:48:31;5.26;93.49
12907;DHT22;6521;50.498;8.474;2022-09-29T05:51:08;5.26;93.51
12907;DHT22;6521;50.498;8.474;2022-09-29T05:53:40;5.29;93.53
12907;DHT22;6521;50.498;8.474;2022-09-29T05:56:16;5.35;93.41
12907;DHT22;6521;50.498;8.474;2022-09-29T05:58:49;5.36;93.70
12907;DHT22;6521;50.498;8.474;2022-09-29T06:01:24;5.45;93.95
12907;DHT22;6521;50.498;8.474;2022-09-29T06:03:55;5.49;93.96
12907;DHT22;6521;50.498;8.474;2022-09-29T06:06:28;5.52;93.65
12907;DHT22;6521;50.498;8.474;2022-09-29T06:08:59;5.47;93.44
12907;DHT22;6521;50.498;8.474;2022-09-29T06:11:29;5.52;93.66
12907;DHT22;6521;50.498;8.474;2022-09-29T06:14:03;5.56;93.52
12907;DHT22;6521;50.498;8.474;2022-09-29T06:16:34;5.59;93.75
12907;DHT22;6521;50.498;8.474;2022-09-29T06:19:05;5.64;93.67
12907;DHT22;6521;50.498;8.474;2022-09-29T06:21:35;5.66;93.51
12907;DHT22;6521;50.498;8.474;2022-09-29T06:24:07;5.64;93.34
12907;DHT22;6521;50.498;8.474;2022-09-29T06:26:38;5.62;93.64
12907;DHT22;6521;50.498;8.474;2022-09-29T06:29:08;5.66;94.00
12907;DHT22;6521;50.498;8.474;2022-09-29T06:31:39;5.70;93.83
12907;DHT22;6521;50.498;8.474;2022-09-29T06:34:09;5.74;93.78
12907;DHT22;6521;50.498;8.474;2022-09-29T06:36:42;5.83;93.65
12907;DHT22;6521;50.498;8.474;2022-09-29T06:39:32;5.87;93.78
12907;DHT22;6521;50.498;8.474;2022-09-29T06:42:03;5.93;93.90
12907;DHT22;6521;50.498;8.474;2022-09-29T06:44:34;5.89;93.49
12907;DHT22;6521;50.498;8.474;2022-09-29T06:47:05;5.81;93.34
12907;DHT22;6521;50.498;8.474;2022-09-29T06:49:35;5.78;93.59
12907;DHT22;6521;50.498;8.474;2022-09-29T06:52:06;5.84;93.39
12907;DHT22;6521;50.498;8.474;2022-09-29T06:54:37;5.87;93.18
12907;DHT22;6521;50.498;8.474;2022-09-29T06:57:08;5.91;93.52
12907;DHT22;6521;50.498;8.474;2022-09-29T06:59:39;5.87;93.13
12907;DHT22;6521;50.498;8.474;2022-09-29T07:02:10;5.90;93.37
12907;DHT22;6521;50.498;8.474;2022-09-29T07:04:41;6.04;93.72
12907;DHT22;6521;50.498;8.474;2022-09-29T07:07:12;6.13;93.29
12907;DHT22;6521;50.498;8.474;2022-09-29T07:09:43;6.28;93.62
12907;DHT22;6521;50.498;8.474;2022-09-29T07:12:13;6.45;93.90
12907;DHT22;6521;50.498;8.474;2022-09-29T07:14:44;6.62;93.66
12907;DHT22;6521;50.498;8.474;2022-09-29T07:17:14;6.71;93.34
12907;DHT22;6521;50.498;8.474;2022-09-29T07:19:45;6.72;92.90
12907;DHT22;6521;50.498;8.474;2022-09-29T07:22:16;6.82;93.29
12907;DHT22;6521;50.498;8.474;2022-09-29T07:24:47;6.90;93.21
12907;DHT22;6521;50.498;8.474;2022-09-29T07:27:18;6.94;93.10
12907;DHT22;6521;50.498;8.474;2022-09-29T07:29:53;6.94;92.15
12907;DHT22;6521;50.498;8.474;2022-09-29T07:32:24;6.96;92.45
12907;DHT22;6521;50.498;8.474;2022-09-29T07:34:56;7.03;92.74
12907;DHT22;6521;50.498;8.474;2022-09-29T07:37:27;7.10;92.52
12907;DHT22;6521;50.498;8.474;2022-09-29T07:39:57;7.23;92.46
12907;DHT22;6521;50.498;8.474;2022-09-29T07:42:28;7.27;92.28
12907;DHT22;6521;50.498;8.474;2022-09-29T07:44:59;7.28;91.58
12907;DHT22;6521;50.498;8.474;2022-09-29T07:47:29;7.36;92.36
12907;DHT22;6521;50.498;8.474;2022-09-29T07:50:00;7.35;91.45
12907;DHT22;6521;50.498;8.474;2022-09-29T07:52:31;7.13;90.72
12907;DHT22;6521;50.498;8.474;2022-09-29T07:55:02;7.17;92.12
12907;DHT22;6521;50.498;8.474;2022-09-29T07:57:33;7.32;92.54
12907;DHT22;6521;50.498;8.474;2022-09-29T08:00:04;7.48;92.55
12907;DHT22;6521;50.498;8.474;2022-09-29T08:02:42;7.56;92.28
12907;DHT22;6521;50.498;8.474;2022-09-29T08:05:13;7.62;91.80
12907;DHT22;6521;50.498;8.474;2022-09-29T08:07:43;7.71;92.05
12907;DHT22;6521;50.498;8.474;2022-09-29T08:10:14;7.83;91.95
12907;DHT22;6521;50.498;8.474;2022-09-29T08:12:45;7.86;91.76
12907;DHT22;6521;50.498;8.474;2022-09-29T08:15:16;7.81;91.50
12907;DHT22;6521;50.498;8.474;2022-09-29T08:17:47;7.97;91.31
12907;DHT22;6521;50.498;8.474;2022-09-29T08:20:17;8.07;90.98
12907;DHT22;6521;50.498;8.474;2022-09-29T08:22:48;8.07;90.62
12907;DHT22;6521;50.498;8.474;2022-09-29T08:25:20;8.09;90.78
12907;DHT22;6521;50.498;8.474;2022-09-29T08:27:53;8.07;91.25
12907;DHT22;6521;50.498;8.474;2022-09-29T08:30:24;8.24;91.74
12907;DHT22;6521;50.498;8.474;2022-09-29T08:32:54;8.38;91.91
12907;DHT22;6521;50.498;8.474;2022-09-29T08:35:25;8.45;90.74
12907;DHT22;6521;50.498;8.474;2022-09-29T08:37:55;8.57;91.11
12907;DHT22;6521;50.498;8.474;2022-09-29T08:40:30;8.69;90.58
12907;DHT22;6521;50.498;8.474;2022-09-29T08:48:28;9.06;91.23
12907;DHT22;6521;50.498;8.474;2022-09-29T08:51:03;9.08;91.21
12907;DHT22;6521;50.498;8.474;2022-09-29T08:53:41;9.08;90.55
12907;DHT22;6521;50.498;8.474;2022-09-29T08:56:15;9.26;90.70
12907;DHT22;6521;50.498;8.474;2022-09-29T08:58:47;9.40;89.90
12907;DHT22;6521;50.498;8.474;2022-09-29T09:04:59;9.58;89.66
12907;DHT22;6521;50.498;8.474;2022-09-29T09:18:51;9.91;89.19
12907;DHT22;6521;50.498;8.474;2022-09-29T09:26:47;10.19;88.24
12907;DHT22;6521;50.498;8.474;2022-09-29T09:29:30;10.42;88.51
12907;DHT22;6521;50.498;8.474;2022-09-29T09:32:07;10.36;85.92
12907;DHT22;6521;50.498;8.474;2022-09-29T09:37:22;10.71;86.58
12907;DHT22;6521;50.498;8.474;2022-09-29T09:40:05;10.67;86.03
12907;DHT22;6521;50.498;8.474;2022-09-29T09:42:51;10.63;86.41
12907;DHT22;6521;50.498;8.474;2022-09-29T09:48:14;10.70;85.77
12907;DHT22;6521;50.498;8.474;2022-09-29T09:50:48;10.70;85.69
12907;DHT22;6521;50.498;8.474;2022-09-29T09:53:27;10.91;84.78
12907;DHT22;6521;50.498;8.474;2022-09-29T10:02:19;11.72;83.04
12907;DHT22;6521;50.498;8.474;2022-09-29T10:04:51;11.79;82.59
12907;DHT22;6521;50.498;8.474;2022-09-29T10:07:26;11.79;83.02
12907;DHT22;6521;50.498;8.474;2022-09-29T10:10:01;11.72;82.00
12907;DHT22;6521;50.498;8.474;2022-09-29T10:12:32;11.72;83.21
12907;DHT22;6521;50.498;8.474;2022-09-29T10:15:13;11.83;83.59
12907;DHT22;6521;50.498;8.474;2022-09-29T10:17:59;12.13;82.75
12907;DHT22;6521;50.498;8.474;2022-09-29T10:20:35;12.18;80.95
12907;DHT22;6521;50.498;8.474;2022-09-29T10:23:33;12.20;81.90
12907;DHT22;6521;50.498;8.474;2022-09-29T10:28:44;11.82;81.21
12907;DHT22;6521;50.498;8.474;2022-09-29T10:31:30;11.86;83.49
12907;DHT22;6521;50.498;8.474;2022-09-29T10:37:17;12.25;82.33
12907;DHT22;6521;50.498;8.474;2022-09-29T10:39:46;12.69;81.55
12907;DHT22;6521;50.498;8.474;2022-09-29T10:44:53;13.14;78.66
12907;DHT22;6521;50.498;8.474;2022-09-29T10:47:24;13.13;78.22
12907;DHT22;6521;50.498;8.474;2022-09-29T10:52:52;13.55;77.23
12907;DHT22;6521;50.498;8.474;2022-09-29T10:57:57;14.08;74.89
12907;DHT22;6521;50.498;8.474;2022-09-29T11:03:07;14.64;73.16
12907;DHT22;6521;50.498;8.474;2022-09-29T11:05:50;15.11;73.55
12907;DHT22;6521;50.498;8.474;2022-09-29T11:08:22;15.35;71.17
12907;DHT22;6521;50.498;8.474;2022-09-29T11:11:16;15.48;69.36
12907;DHT22;6521;50.498;8.474;2022-09-29T11:13:49;15.50;69.39
12907;DHT22;6521;50.498;8.474;2022-09-29T11:19:14;15.62;69.81
12907;DHT22;6521;50.498;8.474;2022-09-29T11:27:59;15.69;68.46
12907;DHT22;6521;50.498;8.474;2022-09-29T11:36:04;15.62;66.86
12907;DHT22;6521;50.498;8.474;2022-09-29T11:38:52;15.74;67.32
12907;DHT22;6521;50.498;8.474;2022-09-29T11:47:02;15.49;68.95
12907;DHT22;6521;50.498;8.474;2022-09-29T11:49:43;15.34;67.81
12907;DHT22;6521;50.498;8.474;2022-09-29T11:52:48;15.25;68.48
12907;DHT22;6521;50.498;8.474;2022-09-29T11:55:37;14.98;70.88
12907;DHT22;6521;50.498;8.474;2022-09-29T12:01:05;14.69;71.68
12907;DHT22;6521;50.498;8.474;2022-09-29T12:11:50;14.69;72.93
12907;DHT22;6521;50.498;8.474;2022-09-29T12:17:01;14.80;72.90
12907;DHT22;6521;50.498;8.474;2022-09-29T12:19:37;14.81;72.61
12907;DHT22;6521;50.498;8.474;2022-09-29T12:22:12;14.74;71.39
12907;DHT22;6521;50.498;8.474;2022-09-29T12:24:49;14.91;72.34
12907;DHT22;6521;50.498;8.474;2022-09-29T12:27:34;15.05;70.64
12907;DHT22;6521;50.498;8.474;2022-09-29T12:30:28;15.01;69.38
12907;DHT22;6521;50.498;8.474;2022-09-29T12:33:05;14.80;68.70
12907;DHT22;6521;50.498;8.474;2022-09-29T12:36:01;14.74;66.74
12907;DHT22;6521;50.498;8.474;2022-09-29T12:39:04;14.88;67.67
12907;DHT22;6521;50.498;8.474;2022-09-29T12:41:42;14.92;69.04
12907;DHT22;6521;50.498;8.474;2022-09-29T12:46:58;14.63;65.45
12907;DHT22;6521;50.498;8.474;2022-09-29T12:49:39;14.60;67.50
12907;DHT22;6521;50.498;8.474;2022-09-29T12:52:18;14.43;66.02
12907;DHT22;6521;50.498;8.474;2022-09-29T12:54:56;14.51;66.23
12907;DHT22;6521;50.498;8.474;2022-09-29T12:57:37;14.81;63.83
12907;DHT22;6521;50.498;8.474;2022-09-29T13:00:14;14.94;62.28
12907;DHT22;6521;50.498;8.474;2022-09-29T13:03:10;14.90;63.38
12907;DHT22;6521;50.498;8.474;2022-09-29T13:06:26;14.92;64.17
12907;DHT22;6521;50.498;8.474;2022-09-29T13:23:44;14.51;61.44
12907;DHT22;6521;50.498;8.474;2022-09-29T13:26:34;14.28;62.51
12907;DHT22;6521;50.498;8.474;2022-09-29T13:29:13;14.37;63.61
12907;DHT22;6521;50.498;8.474;2022-09-29T13:31:46;14.26;63.91
12907;DHT22;6521;50.498;8.474;2022-09-29T13:34:32;14.23;66.26
12907;DHT22;6521;50.498;8.474;2022-09-29T13:37:24;14.22;65.42
12907;DHT22;6521;50.498;8.474;2022-09-29T13:39:59;14.09;65.37
12907;DHT22;6521;50.498;8.474;2022-09-29T13:42:44;14.09;66.36
12907;DHT22;6521;50.498;8.474;2022-09-29T13:47:54;14.05;66.82
12907;DHT22;6521;50.498;8.474;2022-09-29T13:50:49;14.05;64.84
12907;DHT22;6521;50.498;8.474;2022-09-29T13:58:54;14.08;65.09
12907;DHT22;6521;50.498;8.474;2022-09-29T14:01:36;14.02;62.82
12907;DHT22;6521;50.498;8.474;2022-09-29T14:04:42;14.06;65.21
12907;DHT22;6521;50.498;8.474;2022-09-29T14:07:46;14.05;65.93
12907;DHT22;6521;50.498;8.474;2022-09-29T14:13:13;13.92;66.08
12907;DHT22;6521;50.498;8.474;2022-09-29T14:15:51;13.98;66.57
12907;DHT22;6521;50.498;8.474;2022-09-29T14:21:02;14.06;65.69
12907;DHT22;6521;50.498;8.474;2022-09-29T14:26:41;14.73;64.92
12907;DHT22;6521;50.498;8.474;2022-09-29T14:29:16;14.94;63.20
12907;DHT22;6521;50.498;8.474;2022-09-29T14:31:52;15.15;61.43
12907;DHT22;6521;50.498;8.474;2022-09-29T14:34:27;15.11;60.40
12907;DHT22;6521;50.498;8.474;2022-09-29T14:36:59;15.08;60.30
12907;DHT22;6521;50.498;8.474;2022-09-29T14:39:31;15.17;59.83
12907;DHT22;6521;50.498;8.474;2022-09-29T14:42:02;15.28;59.79
12907;DHT22;6521;50.498;8.474;2022-09-29T14:44:36;15.49;59.65
12907;DHT22;6521;50.498;8.474;2022-09-29T14:53:38;15.36;62.04
12907;DHT22;6521;50.498;8.474;2022-09-29T14:59:52;14.60;60.05
12907;DHT22;6521;50.498;8.474;2022-09-29T15:02:28;14.55;62.81
12907;DHT22;6521;50.498;8.474;2022-09-29T15:05:14;14.40;63.85
12907;DHT22;6521;50.498;8.474;2022-09-29T15:07:53;14.20;64.15
12907;DHT22;6521;50.498;8.474;2022-09-29T15:13:25;13.95;65.48
12907;DHT22;6521;50.498;8.474;2022-09-29T15:16:03;13.64;64.23
12907;DHT22;6521;50.498;8.474;2022-09-29T15:21:46;13.39;67.13
12907;DHT22;6521;50.498;8.474;2022-09-29T15:24:26;13.26;66.25
12907;DHT22;6521;50.498;8.474;2022-09-29T15:27:02;13.22;67.36
12907;DHT22;6521;50.498;8.474;2022-09-29T15:29:34;13.14;68.18
12907;DHT22;6521;50.498;8.474;2022-09-29T15:32:28;13.04;68.62
12907;DHT22;6521;50.498;8.474;2022-09-29T15:35:05;13.03;68.85
12907;DHT22;6521;50.498;8.474;2022-09-29T15:37:57;12.97;69.23
12907;DHT22;6521;50.498;8.474;2022-09-29T15:40:33;12.89;69.82
12907;DHT22;6521;50.498;8.474;2022-09-29T15:46:19;12.78;69.54
12907;DHT22;6521;50.498;8.474;2022-09-29T15:49:09;12.71;70.41
12907;DHT22;6521;50.498;8.474;2022-09-29T15:51:41;12.61;71.12
12907;DHT22;6521;50.498;8.474;2022-09-29T15:54:13;12.54;71.97
12907;DHT22;6521;50.498;8.474;2022-09-29T15:56:45;12.38;72.85
12907;DHT22;6521;50.498;8.474;2022-09-29T16:02:20;12.21;73.14
12907;DHT22;6521;50.498;8.474;2022-09-29T16:04:55;12.14;72.89
12907;DHT22;6521;50.498;8.474;2022-09-29T16:07:32;12.07;73.70
12907;DHT22;6521;50.498;8.474;2022-09-29T16:10:14;11.98;74.54
12907;DHT22;6521;50.498;8.474;2022-09-29T16:12:56;11.87;75.35
12907;DHT22;6521;50.498;8.474;2022-09-29T16:15:31;11.80;75.43
12907;DHT22;6521;50.498;8.474;2022-09-29T16:18:07;11.73;75.68
12907;DHT22;6521;50.498;8.474;2022-09-29T16:20:42;11.67;75.88
12907;DHT22;6521;50.498;8.474;2022-09-29T16:23:47;11.59;76.06
12907;DHT22;6521;50.498;8.474;2022-09-29T16:31:41;11.35;76.12
12907;DHT22;6521;50.498;8.474;2022-09-29T16:37:02;11.10;77.17
12907;DHT22;6521;50.498;8.474;2022-09-29T16:39:45;11.00;77.51
12907;DHT22;6521;50.498;8.474;2022-09-29T16:42:18;10.94;77.79
12907;DHT22;6521;50.498;8.474;2022-09-29T16:44:49;10.87;78.52
12907;DHT22;6521;50.498;8.474;2022-09-29T16:47:28;10.80;78.52
12907;DHT22;6521;50.498;8.474;2022-09-29T16:50:12;10.71;78.30
12907;DHT22;6521;50.498;8.474;2022-09-29T16:52:45;10.60;79.06
12907;DHT22;6521;50.498;8.474;2022-09-29T16:58:10;10.49;79.26
12907;DHT22;6521;50.498;8.474;2022-09-29T17:00:42;10.33;79.40
12907;DHT22;6521;50.498;8.474;2022-09-29T17:03:14;10.28;80.08
12907;DHT22;6521;50.498;8.474;2022-09-29T17:05:45;10.20;80.28
12907;DHT22;6521;50.498;8.474;2022-09-29T17:08:25;10.09;80.40
12907;DHT22;6521;50.498;8.474;2022-09-29T17:10:56;9.98;80.64
12907;DHT22;6521;50.498;8.474;2022-09-29T17:13:31;9.94;81.16
12907;DHT22;6521;50.498;8.474;2022-09-29T17:16:04;9.87;81.21
12907;DHT22;6521;50.498;8.474;2022-09-29T17:18:36;9.85;81.75
12907;DHT22;6521;50.498;8.474;2022-09-29T17:21:08;9.75;82.55
12907;DHT22;6521;50.498;8.474;2022-09-29T17:23:40;9.70;82.78
12907;DHT22;6521;50.498;8.474;2022-09-29T17:26:36;9.65;82.75
12907;DHT22;6521;50.498;8.474;2022-09-29T17:29:25;9.62;82.28
12907;DHT22;6521;50.498;8.474;2022-09-29T17:31:57;9.52;82.50
12907;DHT22;6521;50.498;8.474;2022-09-29T17:34:28;9.46;82.63
12907;DHT22;6521;50.498;8.474;2022-09-29T17:36:59;9.40;83.38
12907;DHT22;6521;50.498;8.474;2022-09-29T17:39:31;9.33;83.46
12907;DHT22;6521;50.498;8.474;2022-09-29T17:42:02;9.30;83.50
12907;DHT22;6521;50.498;8.474;2022-09-29T17:44:32;9.22;83.52
12907;DHT22;6521;50.498;8.474;2022-09-29T17:47:03;9.19;83.79
12907;DHT22;6521;50.498;8.474;2022-09-29T17:49:34;9.09;84.07
12907;DHT22;6521;50.498;8.474;2022-09-29T17:52:11;9.03;83.94
12907;DHT22;6521;50.498;8.474;2022-09-29T17:54:44;8.93;83.33
12907;DHT22;6521;50.498;8.474;2022-09-29T17:57:26;8.95;83.39
12907;DHT22;6521;50.498;8.474;2022-09-29T17:59:57;8.98;83.11
12907;DHT22;6521;50.498;8.474;2022-09-29T18:02:30;8.95;83.06
12907;DHT22;6521;50.498;8.474;2022-09-29T18:05:00;8.92;83.45
12907;DHT22;6521;50.498;8.474;2022-09-29T18:07:31;8.89;83.65
12907;DHT22;6521;50.498;8.474;2022-09-29T18:10:05;8.85;83.56
12907;DHT22;6521;50.498;8.474;2022-09-29T18:12:39;8.76;83.63
12907;DHT22;6521;50.498;8.474;2022-09-29T18:15:10;8.69;83.72
12907;DHT22;6521;50.498;8.474;2022-09-29T18:17:41;8.69;83.83
12907;DHT22;6521;50.498;8.474;2022-09-29T18:20:18;8.62;84.28
12907;DHT22;6521;50.498;8.474;2022-09-29T18:22:50;8.50;84.52
12907;DHT22;6521;50.498;8.474;2022-09-29T18:25:21;8.48;84.36
12907;DHT22;6521;50.498;8.474;2022-09-29T18:27:51;8.42;84.76
12907;DHT22;6521;50.498;8.474;2022-09-29T18:30:28;8.41;84.53
12907;DHT22;6521;50.498;8.474;2022-09-29T18:32:59;8.30;84.59
12907;DHT22;6521;50.498;8.474;2022-09-29T18:35:32;8.21;84.79
12907;DHT22;6521;50.498;8.474;2022-09-29T18:38:03;8.14;85.43
12907;DHT22;6521;50.498;8.474;2022-09-29T18:40:34;8.16;85.43
12907;DHT22;6521;50.498;8.474;2022-09-29T18:43:06;8.10;85.76
12907;DHT22;6521;50.498;8.474;2022-09-29T18:45:37;8.09;85.92
12907;DHT22;6521;50.498;8.474;2022-09-29T18:48:13;8.10;86.61
12907;DHT22;6521;50.498;8.474;2022-09-29T18:50:49;8.14;86.10
12907;DHT22;6521;50.498;8.474;2022-09-29T18:53:21;8.09;86.08
12907;DHT22;6521;50.498;8.474;2022-09-29T18:55:59;8.09;86.27
12907;DHT22;6521;50.498;8.474;2022-09-29T18:58:31;8.02;86.41
12907;DHT22;6521;50.498;8.474;2022-09-29T19:01:03;7.99;86.16
12907;DHT22;6521;50.498;8.474;2022-09-29T19:03:33;7.93;86.31
12907;DHT22;6521;50.498;8.474;2022-09-29T19:06:04;7.85;86.62
12907;DHT22;6521;50.498;8.474;2022-09-29T19:08:35;7.78;86.67
12907;DHT22;6521;50.498;8.474;2022-09-29T19:11:15;7.71;86.19
12907;DHT22;6521;50.498;8.474;2022-09-29T19:13:47;7.68;85.56
12907;DHT22;6521;50.498;8.474;2022-09-29T19:16:22;7.56;86.00
12907;DHT22;6521;50.498;8.474;2022-09-29T19:18:53;7.50;86.46
12907;DHT22;6521;50.498;8.474;2022-09-29T19:21:25;7.51;86.51
12907;DHT22;6521;50.498;8.474;2022-09-29T19:23:56;7.45;86.69
12907;DHT22;6521;50.498;8.474;2022-09-29T19:26:27;7.50;86.67
12907;DHT22;6521;50.498;8.474;2022-09-29T19:28:57;7.50;86.86
12907;DHT22;6521;50.498;8.474;2022-09-29T19:31:28;7.47;87.00
12907;DHT22;6521;50.498;8.474;2022-09-29T19:33:59;7.44;87.10
12907;DHT22;6521;50.498;8.474;2022-09-29T19:36:30;7.38;87.33
12907;DHT22;6521;50.498;8.474;2022-09-29T19:39:00;7.38;87.33
12907;DHT22;6521;50.498;8.474;2022-09-29T19:41:33;7.34;87.25
12907;DHT22;6521;50.498;8.474;2022-09-29T19:44:04;7.28;87.18
12907;DHT22;6521;50.498;8.474;2022-09-29T19:46:35;7.21;87.73
12907;DHT22;6521;50.498;8.474;2022-09-29T19:49:06;7.20;87.78
12907;DHT22;6521;50.498;8.474;2022-09-29T19:51:37;7.20;88.25
12907;DHT22;6521;50.498;8.474;2022-09-29T19:54:25;7.20;88.62